createdAt,value
2023-01-06T00:00:03.643Z,6.75
2023-01-06T00:02:33.568Z,6.25
2023-01-06T00:05:03.277Z,6.85
2023-01-06T00:07:31.718Z,8.82
2023-01-06T00:10:00.051Z,7.97
2023-01-06T00:12:28.417Z,5.55
2023-01-06T00:14:56.703Z,6.03
2023-01-06T00:17:25.019Z,7.07
2023-01-06T00:19:53.313Z,5.97
2023-01-06T00:22:22.960Z,5.13
2023-01-06T00:24:51.323Z,5.65
2023-01-06T00:27:19.652Z,7.00
2023-01-06T00:29:49.499Z,5.50
2023-01-06T00:32:18.800Z,4.43
2023-01-06T00:34:47.090Z,10.30
2023-01-06T00:37:15.446Z,7.13
2023-01-06T00:39:45.112Z,7.18
2023-01-06T00:42:14.119Z,6.57
2023-01-06T00:44:42.464Z,5.57
2023-01-06T00:47:11.813Z,4.70
2023-01-06T00:49:40.159Z,5.97
2023-01-06T00:52:08.484Z,5.25
2023-01-06T00:54:37.160Z,5.65
2023-01-06T00:57:07.519Z,6.15
2023-01-06T00:59:36.017Z,5.88
2023-01-06T01:02:04.659Z,8.02
2023-01-06T01:04:33.116Z,6.38
2023-01-06T01:07:01.557Z,5.18
2023-01-06T01:09:31.104Z,8.75
2023-01-06T01:12:11.917Z,7.03
2023-01-06T01:14:43.284Z,6.57
2023-01-06T01:17:12.646Z,6.38
2023-01-06T01:19:42.232Z,9.60
2023-01-06T01:22:11.161Z,9.05
2023-01-06T01:24:39.705Z,6.60
2023-01-06T01:27:08.258Z,5.28
2023-01-06T01:29:36.751Z,7.00
2023-01-06T01:32:06.728Z,8.10
2023-01-06T01:34:35.130Z,8.02
2023-01-06T01:37:03.921Z,6.45
2023-01-06T01:39:32.563Z,9.70
2023-01-06T01:42:01.338Z,10.00
2023-01-06T01:44:53.839Z,8.70
2023-01-06T01:47:25.795Z,9.35
2023-01-06T01:49:55.761Z,15.35
2023-01-06T01:52:24.767Z,11.50
2023-01-06T01:54:53.827Z,11.80
2023-01-06T01:57:25.007Z,9.00
2023-01-06T01:59:53.404Z,11.48
2023-01-06T02:02:22.381Z,12.05
2023-01-06T02:04:54.414Z,10.57
2023-01-06T02:07:25.041Z,9.73
2023-01-06T02:09:56.108Z,10.38
2023-01-06T02:12:24.488Z,8.63
2023-01-06T02:14:52.818Z,9.02
2023-01-06T02:17:33.780Z,8.77
2023-01-06T02:20:25.795Z,9.00
2023-01-06T02:23:13.885Z,9.32
2023-01-06T02:26:02.198Z,9.48
2023-01-06T02:28:45.802Z,8.02
2023-01-06T02:31:21.460Z,11.40
2023-01-06T02:33:52.844Z,11.50
2023-01-06T02:36:24.436Z,14.40
2023-01-06T02:39:02.392Z,12.95
2023-01-06T02:41:33.500Z,13.38
2023-01-06T02:44:04.382Z,12.20
2023-01-06T02:46:53.252Z,13.48
2023-01-06T02:49:28.807Z,14.60
2023-01-06T02:51:59.731Z,12.32
2023-01-06T02:54:32.113Z,14.73
2023-01-06T02:57:05.828Z,15.27
2023-01-06T02:59:37.834Z,13.48
2023-01-06T03:02:09.218Z,14.20
2023-01-06T03:04:40.558Z,13.00
2023-01-06T03:07:09.843Z,14.88
2023-01-06T03:09:40.385Z,15.57
2023-01-06T03:12:10.001Z,11.52
2023-01-06T03:14:39.656Z,11.65
2023-01-06T03:17:09.374Z,10.57
2023-01-06T03:19:37.746Z,11.25
2023-01-06T03:22:08.524Z,11.32
2023-01-06T03:24:37.472Z,9.02
2023-01-06T03:27:06.658Z,9.27
2023-01-06T03:29:37.336Z,9.75
2023-01-06T03:32:11.498Z,7.80
2023-01-06T03:34:46.819Z,6.75
2023-01-06T03:37:21.133Z,7.18
2023-01-06T03:39:54.881Z,5.40
2023-01-06T03:42:44.838Z,5.75
2023-01-06T03:45:20.334Z,6.93
2023-01-06T03:47:53.886Z,6.20
2023-01-06T03:50:27.796Z,7.82
2023-01-06T03:52:58.388Z,5.97
2023-01-06T03:55:31.487Z,7.03
2023-01-06T03:58:00.917Z,6.05
2023-01-06T05:11:33.243Z,3.30
2023-01-06T05:27:39.578Z,3.78
2023-01-06T05:30:36.243Z,2.92
2023-01-06T05:37:36.452Z,3.42
2023-01-06T05:40:06.074Z,2.90
2023-01-06T05:42:34.590Z,3.90
2023-01-06T05:45:03.009Z,3.00
2023-01-06T05:47:32.886Z,3.42
2023-01-06T05:50:01.312Z,5.90
2023-01-06T05:52:29.878Z,2.63
2023-01-06T05:55:00.877Z,4.82
2023-01-06T05:57:29.278Z,3.97
2023-01-06T05:59:57.670Z,3.00
2023-01-06T06:02:26.260Z,3.47
2023-01-06T06:04:56.019Z,4.18
2023-01-06T06:07:24.370Z,2.97
2023-01-06T06:09:52.678Z,2.70
2023-01-06T06:12:21.089Z,2.80
2023-01-06T06:14:49.471Z,3.17
2023-01-06T06:17:17.810Z,4.03
2023-01-06T06:19:46.099Z,2.40
2023-01-06T06:22:15.873Z,1.50
2023-01-06T06:24:44.284Z,3.35
2023-01-06T06:27:12.791Z,2.08
2023-01-06T06:29:41.119Z,3.65
2023-01-06T06:32:09.415Z,2.97
2023-01-06T06:34:37.782Z,1.90
2023-01-06T06:37:06.194Z,4.18
2023-01-06T06:39:35.891Z,2.95
2023-01-06T06:42:04.476Z,2.72
2023-01-06T06:44:32.895Z,1.38
2023-01-06T06:47:01.292Z,2.42
2023-01-06T06:49:29.622Z,1.48
2023-01-06T06:51:57.995Z,1.88
2023-01-06T06:54:26.279Z,2.50
2023-01-06T06:56:56.933Z,2.83
2023-01-06T06:59:25.311Z,2.28
2023-01-06T07:01:53.775Z,1.80
2023-01-06T07:04:22.406Z,2.50
2023-01-06T07:06:50.968Z,1.52
2023-01-06T07:09:19.370Z,2.17
2023-01-06T07:11:47.731Z,1.83
2023-01-06T07:14:17.713Z,3.05
2023-01-06T07:16:46.083Z,1.67
2023-01-06T07:19:14.391Z,7.40
2023-01-06T07:21:42.866Z,2.35
2023-01-06T07:24:11.233Z,2.53
2023-01-06T07:26:39.596Z,1.83
2023-01-06T07:29:07.891Z,1.90
2023-01-06T07:31:37.550Z,1.20
2023-01-06T07:34:05.945Z,2.50
2023-01-06T07:36:34.305Z,4.53
2023-01-06T07:39:02.660Z,2.25
2023-01-06T07:41:32.458Z,1.40
2023-01-06T07:44:02.465Z,1.00
2023-01-06T07:46:30.817Z,2.22
2023-01-06T07:49:00.655Z,1.90
2023-01-06T07:51:29.051Z,1.02
2023-01-06T07:53:57.340Z,2.35
2023-01-06T07:56:25.678Z,2.53
2023-01-06T07:58:55.109Z,2.03
2023-01-06T08:01:23.549Z,2.50
2023-01-06T08:03:51.912Z,2.65
2023-01-06T08:06:21.625Z,3.08
2023-01-06T08:08:49.983Z,1.98
2023-01-06T08:11:20.729Z,4.57
2023-01-06T08:13:49.115Z,1.63
2023-01-06T08:16:17.612Z,1.25
2023-01-06T08:18:45.917Z,2.42
2023-01-06T08:21:14.874Z,1.52
2023-01-06T08:23:47.274Z,1.75
2023-01-06T08:26:17.921Z,1.60
2023-01-06T08:28:47.304Z,2.90
2023-01-06T08:31:17.388Z,3.28
2023-01-06T08:33:49.038Z,1.50
2023-01-06T08:36:18.807Z,1.40
2023-01-06T08:38:48.678Z,3.15
2023-01-06T08:41:17.390Z,2.63
2023-01-06T08:43:46.566Z,2.17
2023-01-06T08:46:16.050Z,2.60
2023-01-06T08:48:44.478Z,1.48
2023-01-06T08:51:13.743Z,2.22
2023-01-06T08:53:43.840Z,1.35
2023-01-06T08:56:17.065Z,3.20
2023-01-06T08:58:45.595Z,1.67
2023-01-06T09:01:18.265Z,2.83
2023-01-06T09:03:48.519Z,1.52
2023-01-06T09:06:17.281Z,2.00
2023-01-06T09:08:45.642Z,1.55
2023-01-06T09:11:14.313Z,1.58
2023-01-06T09:13:44.324Z,2.67
2023-01-06T09:16:13.316Z,1.83
2023-01-06T09:18:47.366Z,4.13
2023-01-06T09:21:15.720Z,1.70
2023-01-06T09:23:44.128Z,1.73
2023-01-06T09:26:14.893Z,2.10
2023-01-06T09:28:44.685Z,1.67
2023-01-06T09:31:13.042Z,1.10
2023-01-06T09:33:41.637Z,1.52
2023-01-06T09:36:10.092Z,5.45
2023-01-06T09:38:38.474Z,1.95
2023-01-06T09:41:24.822Z,1.35
2023-01-06T09:43:55.932Z,2.13
2023-01-06T09:46:26.690Z,2.10
2023-01-06T09:48:58.479Z,2.45
2023-01-06T09:51:28.334Z,1.45
2023-01-06T09:53:58.947Z,2.22
2023-01-06T09:56:27.488Z,3.08
2023-01-06T09:59:02.341Z,3.63
2023-01-06T10:01:32.465Z,2.20
2023-01-06T10:04:02.160Z,3.50
2023-01-06T10:06:33.580Z,4.47
2023-01-06T10:09:07.243Z,3.78
2023-01-06T10:11:38.480Z,1.98
2023-01-06T10:14:11.915Z,2.55
2023-01-06T10:16:55.432Z,4.50
2023-01-06T10:19:28.206Z,2.80
2023-01-06T10:22:34.177Z,4.47
2023-01-06T10:29:32.585Z,5.93
2023-01-06T10:32:02.610Z,5.05
2023-01-06T10:34:31.293Z,4.30
2023-01-06T10:37:03.668Z,7.07
2023-01-06T10:39:33.318Z,4.38
2023-01-06T10:42:25.093Z,3.55
2023-01-06T10:44:54.741Z,1.77
2023-01-06T10:47:26.058Z,3.40
2023-01-06T10:49:54.421Z,3.03
2023-01-06T10:52:23.622Z,3.45
2023-01-06T10:54:53.803Z,2.55
2023-01-06T10:57:23.732Z,4.40
2023-01-06T11:00:12.432Z,2.97
2023-01-06T11:02:45.392Z,4.03
2023-01-06T11:05:15.466Z,2.10
2023-01-06T11:07:50.800Z,2.42
2023-01-06T11:10:25.657Z,2.15
2023-01-06T11:12:54.026Z,1.95
2023-01-06T11:15:23.448Z,1.88
2023-01-06T11:17:53.335Z,1.27
2023-01-06T11:20:31.919Z,3.38
2023-01-06T11:23:20.766Z,3.55
2023-01-06T11:26:01.921Z,2.30
2023-01-06T11:28:30.652Z,2.67
2023-01-06T11:31:01.624Z,2.15
2023-01-06T11:33:32.268Z,7.25
2023-01-06T11:36:03.951Z,2.78
2023-01-06T11:38:32.295Z,3.13
2023-01-06T11:41:00.569Z,3.35
2023-01-06T11:43:32.964Z,2.20
2023-01-06T11:46:02.497Z,3.95
2023-01-06T11:48:33.983Z,2.47
2023-01-06T11:51:03.203Z,2.00
2023-01-06T11:53:33.368Z,2.13
2023-01-06T11:56:03.246Z,2.45
2023-01-06T11:58:41.374Z,2.63
2023-01-06T12:01:16.463Z,2.47
2023-01-06T12:03:53.500Z,1.85
2023-01-06T12:06:27.778Z,4.10
2023-01-06T12:09:00.391Z,1.75
2023-01-06T12:11:34.296Z,2.47
2023-01-06T12:14:13.415Z,4.03
2023-01-06T12:16:57.775Z,2.38
2023-01-06T12:19:32.943Z,5.40
2023-01-06T12:22:01.985Z,1.85
2023-01-06T12:24:32.113Z,2.65
2023-01-06T12:27:02.617Z,3.80
2023-01-06T12:29:32.491Z,2.00
2023-01-06T12:32:04.968Z,2.03
2023-01-06T12:34:37.188Z,6.07
2023-01-06T12:37:12.137Z,2.22
2023-01-06T12:39:45.733Z,2.97
2023-01-06T12:42:20.445Z,2.65
2023-01-06T12:44:51.165Z,2.15
2023-01-06T12:47:22.679Z,2.95
2023-01-06T12:49:56.219Z,3.10
2023-01-06T12:52:26.712Z,3.33
2023-01-06T12:54:56.845Z,3.08
2023-01-06T12:57:31.011Z,2.38
2023-01-06T13:00:04.907Z,2.75
2023-01-06T13:02:44.924Z,3.83
2023-01-06T13:05:20.727Z,3.92
2023-01-06T13:07:54.470Z,4.53
2023-01-06T13:10:32.431Z,7.45
2023-01-06T13:13:06.885Z,6.28
2023-01-06T13:15:38.050Z,3.28
2023-01-06T13:18:12.174Z,2.50
2023-01-06T13:20:43.981Z,2.80
2023-01-06T13:23:20.690Z,3.28
2023-01-06T13:26:01.095Z,5.13
2023-01-06T13:28:32.496Z,1.85
2023-01-06T13:31:20.505Z,2.20
2023-01-06T13:33:58.862Z,4.07
2023-01-06T13:36:43.254Z,2.53
2023-01-06T13:39:15.424Z,2.40
2023-01-06T13:41:45.364Z,3.08
2023-01-06T13:44:16.343Z,2.40
2023-01-06T13:46:45.236Z,2.20
2023-01-06T13:49:14.574Z,1.92
2023-01-06T13:51:45.079Z,2.15
2023-01-06T13:54:40.677Z,3.33
2023-01-06T13:57:30.663Z,2.30
2023-01-06T14:00:13.235Z,3.58
2023-01-06T14:03:00.446Z,4.00
2023-01-06T14:05:47.837Z,4.13
2023-01-06T14:08:19.233Z,2.85
2023-01-06T14:10:49.190Z,2.88
2023-01-06T14:13:22.555Z,3.88
2023-01-06T14:15:56.185Z,2.85
2023-01-06T14:18:32.346Z,1.80
2023-01-06T14:21:02.378Z,3.45
2023-01-06T14:23:32.355Z,1.70
2023-01-06T14:26:00.824Z,2.33
2023-01-06T14:28:30.376Z,2.95
2023-01-06T14:31:17.404Z,2.60
2023-01-06T14:33:46.077Z,1.90
2023-01-06T14:36:15.111Z,2.95
2023-01-06T14:38:46.426Z,1.88
2023-01-06T14:41:20.717Z,1.70
2023-01-06T14:43:53.028Z,2.17
2023-01-06T14:46:23.006Z,2.58
2023-01-06T14:48:57.014Z,1.73
2023-01-06T14:51:25.796Z,1.55
2023-01-06T14:54:00.665Z,1.67
2023-01-06T14:56:30.637Z,2.42
2023-01-06T14:59:12.766Z,1.80
2023-01-06T15:01:43.019Z,4.15
2023-01-06T15:04:23.535Z,1.73
2023-01-06T15:07:12.942Z,2.75
2023-01-06T15:09:42.679Z,2.13
2023-01-06T15:12:23.669Z,3.90
2023-01-06T15:14:52.001Z,1.83
2023-01-06T15:17:20.600Z,2.55
2023-01-06T15:19:49.773Z,2.25
2023-01-06T15:22:21.274Z,2.40
2023-01-06T15:24:51.379Z,2.53
2023-01-06T15:27:20.364Z,3.55
2023-01-06T15:29:52.359Z,4.80
2023-01-06T15:32:21.760Z,2.67
2023-01-06T15:34:50.914Z,3.08
2023-01-06T15:37:20.745Z,2.38
2023-01-06T15:39:50.922Z,3.17
2023-01-06T15:42:20.871Z,2.78
2023-01-06T15:44:56.154Z,2.90
2023-01-06T15:47:28.230Z,5.32
2023-01-06T15:49:57.598Z,3.20
2023-01-06T15:52:27.419Z,2.70
2023-01-06T15:54:58.228Z,2.65
2023-01-06T15:57:27.457Z,5.55
2023-01-06T15:59:56.669Z,3.85
2023-01-06T16:02:26.451Z,2.72
2023-01-06T16:04:54.943Z,2.38
2023-01-06T16:07:35.556Z,3.10
2023-01-06T16:10:05.738Z,2.50
2023-01-06T16:12:34.238Z,2.60
2023-01-06T16:15:22.533Z,3.13
2023-01-06T16:17:50.881Z,2.78
2023-01-06T16:20:24.151Z,3.30
2023-01-06T16:22:54.363Z,3.15
2023-01-06T16:25:28.241Z,2.30
2023-01-06T16:27:57.190Z,3.95
2023-01-06T16:30:26.649Z,2.45
2023-01-06T16:32:55.834Z,2.40
2023-01-06T16:35:25.249Z,2.10
2023-01-06T16:37:54.038Z,2.45
2023-01-06T16:40:23.115Z,4.13
2023-01-06T16:42:57.701Z,5.50
2023-01-06T16:45:27.960Z,2.60
2023-01-06T16:47:56.759Z,3.05
2023-01-06T16:50:26.281Z,4.00
2023-01-06T16:53:05.413Z,3.25
2023-01-06T16:55:33.898Z,4.53
2023-01-06T16:58:07.311Z,2.92
2023-01-06T17:00:37.754Z,3.10
2023-01-06T17:03:13.173Z,3.85
2023-01-06T17:05:41.608Z,2.22
2023-01-06T17:08:12.767Z,3.63
2023-01-06T17:10:41.264Z,4.50
2023-01-06T17:13:32.367Z,2.92
2023-01-06T17:16:02.535Z,3.15
2023-01-06T17:18:32.398Z,2.85
2023-01-06T17:21:10.273Z,2.85
2023-01-06T17:23:40.748Z,3.78
2023-01-06T17:26:11.846Z,3.38
2023-01-06T17:28:42.572Z,3.67
2023-01-06T17:31:15.308Z,3.78
2023-01-06T17:33:44.192Z,2.67
2023-01-06T17:36:19.189Z,2.97
2023-01-06T17:38:49.232Z,3.17
2023-01-06T17:41:18.460Z,3.88
2023-01-06T17:43:48.291Z,3.45
2023-01-06T17:46:21.305Z,3.15
2023-01-06T17:48:51.321Z,3.35
2023-01-06T17:51:19.931Z,2.00
2023-01-06T17:54:07.196Z,3.75
2023-01-06T17:56:35.591Z,2.42
2023-01-06T17:59:12.114Z,3.10
2023-01-06T18:01:41.162Z,2.45
2023-01-06T18:04:11.609Z,2.30
2023-01-06T18:06:40.807Z,3.00
2023-01-06T18:09:12.889Z,2.38
2023-01-06T18:11:42.325Z,3.10
2023-01-06T18:14:26.258Z,3.22
2023-01-06T18:16:56.647Z,3.63
2023-01-06T18:19:26.646Z,2.40
2023-01-06T18:21:55.378Z,2.63
2023-01-06T18:24:25.746Z,3.15
2023-01-06T18:26:58.596Z,2.88
2023-01-06T18:29:31.490Z,3.00
2023-01-06T18:32:17.208Z,3.05
2023-01-06T18:34:46.459Z,3.28
2023-01-06T18:37:14.906Z,3.42
2023-01-06T18:39:44.483Z,2.55
2023-01-06T18:42:17.055Z,4.38
2023-01-06T18:44:47.514Z,3.03
2023-01-06T18:47:17.233Z,2.63
2023-01-06T18:49:45.598Z,2.90
2023-01-06T18:52:38.399Z,4.07
2023-01-06T18:55:30.901Z,3.17
2023-01-06T18:58:03.367Z,3.97
2023-01-06T19:00:41.509Z,4.00
2023-01-06T19:03:29.778Z,3.20
2023-01-06T19:06:02.946Z,2.40
2023-01-06T19:08:34.374Z,2.35
2023-01-06T19:11:03.080Z,2.53
2023-01-06T19:13:32.177Z,2.88
2023-01-06T19:16:03.954Z,2.95
2023-01-06T19:18:34.990Z,2.60
2023-01-06T19:21:04.803Z,2.92
2023-01-06T19:23:33.403Z,4.95
2023-01-06T19:26:05.205Z,2.80
2023-01-06T19:28:35.117Z,4.05
2023-01-06T19:31:05.722Z,3.28
2023-01-06T19:33:37.144Z,3.63
2023-01-06T19:36:26.548Z,3.38
2023-01-06T19:38:55.297Z,3.13
2023-01-06T19:41:25.546Z,4.22
2023-01-06T19:43:55.371Z,3.58
2023-01-06T19:46:28.111Z,3.90
2023-01-06T19:48:56.852Z,3.70
2023-01-06T19:51:29.868Z,5.50
2023-01-06T19:54:00.604Z,3.15
2023-01-06T19:56:31.002Z,3.50
2023-01-06T19:59:00.249Z,4.20
2023-01-06T20:01:33.162Z,4.95
2023-01-06T20:04:02.165Z,3.38
2023-01-06T20:06:30.675Z,4.13
2023-01-06T20:08:58.991Z,2.72
2023-01-06T20:11:27.303Z,3.97
2023-01-06T20:13:55.622Z,3.85
2023-01-06T20:16:24.126Z,2.80
2023-01-06T20:18:56.032Z,3.55
2023-01-06T20:21:24.477Z,3.08
2023-01-06T20:23:52.903Z,3.60
2023-01-06T20:26:21.498Z,5.07
2023-01-06T20:28:50.432Z,4.03
2023-01-06T20:31:18.923Z,3.17
2023-01-06T20:33:47.487Z,3.10
2023-01-06T20:36:17.459Z,3.67
2023-01-06T20:38:45.827Z,3.33
2023-01-06T20:41:14.207Z,3.92
2023-01-06T20:43:42.996Z,5.10
2023-01-06T20:46:11.365Z,4.35
2023-01-06T20:48:39.765Z,4.20
2023-01-06T20:51:08.755Z,4.60
2023-01-06T20:53:38.516Z,4.18
2023-01-06T20:56:07.553Z,3.90
2023-01-06T20:58:35.860Z,4.10
2023-01-06T21:01:04.375Z,4.32
2023-01-06T21:03:32.727Z,3.65
2023-01-06T21:06:01.056Z,4.50
2023-01-06T21:08:29.449Z,3.97
2023-01-06T21:10:59.127Z,4.00
2023-01-06T21:13:27.480Z,3.55
2023-01-06T21:15:55.831Z,4.50
2023-01-06T21:18:24.247Z,4.22
2023-01-06T21:20:52.654Z,3.65
2023-01-06T21:23:21.037Z,5.00
2023-01-06T21:25:51.081Z,4.18
2023-01-06T21:28:20.961Z,3.33
2023-01-06T21:30:49.414Z,3.83
2023-01-06T21:33:19.876Z,4.22
2023-01-06T21:35:49.583Z,4.18
2023-01-06T21:38:18.126Z,3.60
2023-01-06T21:40:46.485Z,3.97
2023-01-06T21:43:13.854Z,3.83
2023-01-06T21:45:44.342Z,4.03
2023-01-06T21:48:13.505Z,4.22
2023-01-06T21:50:43.018Z,3.35
2023-01-06T21:53:11.732Z,3.03
2023-01-06T21:55:41.179Z,3.75
2023-01-06T21:58:09.687Z,3.78
2023-01-06T22:00:38.832Z,4.30
2023-01-06T22:03:10.377Z,3.90
2023-01-06T22:05:40.107Z,3.42
2023-01-06T22:08:11.594Z,3.45
2023-01-06T22:10:42.931Z,3.28
2023-01-06T22:13:12.623Z,3.47
2023-01-06T22:15:41.401Z,4.60
2023-01-06T22:18:11.190Z,4.63
2023-01-06T22:20:39.707Z,4.50
2023-01-06T22:23:09.517Z,4.38
2023-01-06T22:25:38.012Z,4.32
2023-01-06T22:28:06.504Z,4.25
2023-01-06T22:30:35.161Z,3.70
2023-01-06T22:33:03.740Z,5.35
2023-01-06T22:35:33.416Z,3.88
2023-01-06T22:38:01.776Z,4.45
2023-01-06T22:40:30.173Z,3.35
2023-01-06T22:42:58.472Z,3.97
2023-01-06T22:45:26.819Z,3.42
2023-01-06T22:47:55.144Z,3.75
2023-01-06T22:50:23.532Z,3.03
2023-01-06T22:52:53.235Z,3.70
2023-01-06T22:55:21.555Z,3.15
2023-01-06T22:57:49.890Z,3.45
2023-01-06T23:00:19.941Z,4.25
2023-01-06T23:02:48.439Z,3.88
2023-01-06T23:05:16.988Z,2.88
2023-01-06T23:07:45.346Z,2.45
2023-01-06T23:10:15.706Z,3.97
2023-01-06T23:12:44.427Z,3.40
2023-01-06T23:15:13.068Z,3.13
2023-01-06T23:17:41.454Z,3.65
2023-01-06T23:20:10.238Z,3.10
2023-01-06T23:22:38.627Z,2.95
2023-01-06T23:25:07.648Z,4.00
2023-01-06T23:27:38.321Z,3.47
2023-01-06T23:30:10.969Z,4.47
2023-01-06T23:32:39.583Z,4.40
2023-01-06T23:35:08.606Z,3.28
2023-01-06T23:37:38.219Z,3.90
2023-01-06T23:40:13.603Z,3.25
2023-01-06T23:42:48.808Z,3.53
2023-01-06T23:45:18.465Z,4.35
2023-01-06T23:47:47.015Z,4.03
2023-01-06T23:50:15.618Z,4.65
2023-01-06T23:52:44.187Z,4.10
2023-01-06T23:55:12.693Z,3.42
2023-01-06T23:57:41.231Z,3.25
